createdAt,value
2018-11-05T00:01:50.902Z,94953.02
2018-11-05T00:04:22.663Z,94945.59
2018-11-05T00:06:54.539Z,94945.03
2018-11-05T00:09:26.332Z,94938.30
2018-11-05T00:11:58.188Z,94940.53
2018-11-05T00:14:29.964Z,94943.60
2018-11-05T00:17:01.798Z,94946.05
2018-11-05T00:19:33.782Z,94936.34
2018-11-05T00:22:05.454Z,94934.48
2018-11-05T00:24:37.346Z,94944.03
2018-11-05T00:27:09.196Z,94943.86
2018-11-05T00:29:40.986Z,94935.22
2018-11-05T00:32:12.781Z,94937.70
2018-11-05T00:34:44.571Z,94943.32
2018-11-05T00:37:16.377Z,94927.35
2018-11-05T00:39:48.198Z,94936.23
2018-11-05T00:42:20.019Z,94952.27
2018-11-05T00:44:51.824Z,94953.18
2018-11-05T00:47:23.644Z,94946.05
2018-11-05T00:49:55.449Z,94926.05
2018-11-05T00:52:27.248Z,94919.78
2018-11-05T00:54:59.058Z,94919.45
2018-11-05T00:57:30.852Z,94917.47
2018-11-05T01:00:02.815Z,94921.97
2018-11-05T01:02:34.650Z,94932.10
2018-11-05T01:05:07.269Z,94928.45
2018-11-05T01:07:39.325Z,94923.70
2018-11-05T01:10:12.493Z,94916.69
2018-11-05T01:12:44.300Z,94911.22
2018-11-05T01:15:17.227Z,94906.94
2018-11-05T01:17:49.122Z,94894.06
2018-11-05T01:20:20.888Z,94898.95
2018-11-05T01:22:52.687Z,94892.23
2018-11-05T01:25:24.523Z,94896.73
2018-11-05T01:27:56.354Z,94909.20
2018-11-05T01:30:28.135Z,94921.75
2018-11-05T01:33:00.010Z,94909.75
2018-11-05T01:35:31.802Z,94913.48
2018-11-05T01:38:03.677Z,94903.92
2018-11-05T01:40:35.482Z,94894.25
2018-11-05T01:43:07.260Z,94875.44
2018-11-05T01:45:39.037Z,94869.33
2018-11-05T01:48:10.860Z,94870.40
2018-11-05T01:50:42.625Z,94861.07
2018-11-05T01:53:14.433Z,94868.22
2018-11-05T01:55:46.218Z,94871.86
2018-11-05T01:58:18.001Z,94864.23
2018-11-05T02:00:49.786Z,94852.98
2018-11-05T02:03:21.633Z,94852.89
2018-11-05T02:05:53.460Z,94852.53
2018-11-05T02:08:25.268Z,94853.73
2018-11-05T02:10:57.058Z,94854.50
2018-11-05T02:13:29.392Z,94854.95
2018-11-05T02:16:01.037Z,94856.79
2018-11-05T02:18:32.825Z,94858.72
2018-11-05T02:21:04.622Z,94852.49
2018-11-05T02:23:36.417Z,94856.17
2018-11-05T02:26:08.363Z,94854.64
2018-11-05T02:28:40.176Z,94845.39
2018-11-05T02:31:12.025Z,94850.86
2018-11-05T02:33:43.867Z,94855.06
2018-11-05T02:36:15.685Z,94853.86
2018-11-05T02:38:47.581Z,94838.91
2018-11-05T02:41:19.372Z,94849.14
2018-11-05T02:43:51.185Z,94843.03
2018-11-05T02:46:22.962Z,94837.80
2018-11-05T02:48:54.761Z,94829.09
2018-11-05T02:51:26.531Z,94844.80
2018-11-05T02:53:58.332Z,94847.66
2018-11-05T02:56:30.131Z,94837.63
2018-11-05T02:59:02.038Z,94844.23
2018-11-05T03:01:33.738Z,94838.60
2018-11-05T03:04:05.574Z,94849.55
2018-11-05T03:06:37.374Z,94839.55
2018-11-05T03:09:12.657Z,94843.63
2018-11-05T03:11:44.466Z,94836.98
2018-11-05T03:14:16.273Z,94849.88
2018-11-05T03:16:48.052Z,94852.24
2018-11-05T03:19:19.884Z,94852.75
2018-11-05T03:21:51.666Z,94842.78
2018-11-05T03:24:23.511Z,94839.52
2018-11-05T03:26:55.290Z,94839.37
2018-11-05T03:29:27.116Z,94844.00
2018-11-05T03:31:58.919Z,94831.66
2018-11-05T03:34:30.735Z,94835.34
2018-11-05T03:37:02.526Z,94830.66
2018-11-05T03:39:34.332Z,94830.44
2018-11-05T03:42:06.300Z,94826.75
2018-11-05T03:44:38.143Z,94828.00
2018-11-05T03:47:09.930Z,94836.02
2018-11-05T03:49:41.756Z,94844.70
2018-11-05T03:52:13.540Z,94834.86
2018-11-05T03:54:45.371Z,94837.67
2018-11-05T03:57:17.151Z,94836.09
2018-11-05T03:59:48.991Z,94834.28
2018-11-05T04:02:20.805Z,94832.48
2018-11-05T04:04:52.647Z,94832.66
2018-11-05T04:07:26.148Z,94836.54
2018-11-05T04:09:56.390Z,94832.38
2018-11-05T04:12:28.182Z,94840.07
2018-11-05T04:15:00.032Z,94846.19
2018-11-05T04:17:31.846Z,94835.16
2018-11-05T04:20:03.649Z,94823.77
2018-11-05T04:22:35.455Z,94822.75
2018-11-05T04:25:07.406Z,94824.80
2018-11-05T04:27:39.241Z,94827.61
2018-11-05T04:30:16.582Z,94818.77
2018-11-05T04:32:48.449Z,94805.11
2018-11-05T04:35:20.242Z,94797.39
2018-11-05T04:37:52.134Z,94798.45
2018-11-05T04:40:23.864Z,94793.87
2018-11-05T04:42:55.657Z,94799.42
2018-11-05T04:45:27.516Z,94802.60
2018-11-05T04:47:59.426Z,94812.70
2018-11-05T04:50:31.304Z,94809.97
2018-11-05T04:53:03.207Z,94798.64
2018-11-05T04:55:35.035Z,94799.66
2018-11-05T04:58:06.839Z,94801.45
2018-11-05T05:00:38.692Z,94803.07
2018-11-05T05:03:10.526Z,94800.94
2018-11-05T05:05:42.376Z,94798.50
2018-11-05T05:08:14.222Z,94792.47
2018-11-05T05:10:46.041Z,94787.36
2018-11-05T05:13:17.857Z,94792.21
2018-11-05T05:15:49.674Z,94794.42
2018-11-05T05:18:21.468Z,94797.13
2018-11-05T05:20:53.274Z,94795.39
2018-11-05T05:23:25.179Z,94799.02
2018-11-05T05:25:57.037Z,94808.20
2018-11-05T05:28:28.958Z,94798.53
2018-11-05T05:31:00.792Z,94805.34
2018-11-05T05:33:32.668Z,94806.82
2018-11-05T05:36:04.453Z,94811.73
2018-11-05T05:38:36.201Z,94791.62
2018-11-05T05:41:08.451Z,94797.35
2018-11-05T05:43:40.266Z,94795.42
2018-11-05T05:46:12.116Z,94795.91
2018-11-05T05:48:43.907Z,94805.44
2018-11-05T05:51:15.926Z,94807.80
2018-11-05T05:53:47.720Z,94803.22
2018-11-05T05:56:19.587Z,94804.80
2018-11-05T05:58:51.435Z,94803.22
2018-11-05T06:01:23.378Z,94805.81
2018-11-05T06:03:55.370Z,94797.56
2018-11-05T06:06:27.227Z,94795.63
2018-11-05T06:08:59.163Z,94802.06
2018-11-05T06:11:31.048Z,94796.68
2018-11-05T06:14:02.957Z,94803.95
2018-11-05T06:16:35.128Z,94809.19
2018-11-05T06:19:07.208Z,94817.02
2018-11-05T06:21:39.215Z,94805.85
2018-11-05T06:24:10.995Z,94817.94
2018-11-05T06:26:42.815Z,94804.19
2018-11-05T06:29:14.648Z,94800.61
2018-11-05T06:31:46.477Z,94809.84
2018-11-05T06:34:18.420Z,94810.26
2018-11-05T06:36:50.153Z,94815.20
2018-11-05T06:39:22.029Z,94819.23
2018-11-05T06:41:54.065Z,94815.89
2018-11-05T06:44:25.854Z,94809.83
2018-11-05T06:46:57.728Z,94807.80
2018-11-05T06:49:29.591Z,94829.88
2018-11-05T06:52:01.445Z,94833.54
2018-11-05T06:54:33.297Z,94818.27
2018-11-05T06:57:05.173Z,94812.71
2018-11-05T06:59:36.980Z,94817.98
2018-11-05T07:02:08.822Z,94811.22
2018-11-05T07:04:40.726Z,94810.72
2018-11-05T07:07:12.567Z,94807.29
2018-11-05T07:09:44.457Z,94807.38
2018-11-05T07:12:16.226Z,94808.30
2018-11-05T07:14:48.160Z,94812.84
2018-11-05T07:17:19.931Z,94803.64
2018-11-05T07:19:51.745Z,94811.84
2018-11-05T07:22:23.628Z,94807.66
2018-11-05T07:24:55.533Z,94808.36
2018-11-05T07:27:27.598Z,94815.96
2018-11-05T07:29:59.341Z,94814.56
2018-11-05T07:32:31.223Z,94815.66
2018-11-05T07:35:03.005Z,94825.09
2018-11-05T07:37:34.899Z,94820.22
2018-11-05T07:40:08.170Z,94828.21
2018-11-05T07:42:40.331Z,94833.16
2018-11-05T07:45:23.985Z,94820.69
2018-11-05T07:47:55.804Z,94804.77
2018-11-05T07:50:29.922Z,94797.03
2018-11-05T07:52:59.543Z,94798.31
2018-11-05T07:55:31.336Z,94793.97
2018-11-05T07:58:03.240Z,94792.11
2018-11-05T08:00:52.448Z,94804.35
2018-11-05T08:03:24.718Z,94815.78
2018-11-05T08:05:57.233Z,94826.86
2018-11-05T08:08:29.179Z,94825.09
2018-11-05T08:11:00.913Z,94824.98
2018-11-05T08:13:32.908Z,94832.22
2018-11-05T08:16:04.815Z,94830.78
2018-11-05T08:18:36.643Z,94830.14
2018-11-05T08:21:08.488Z,94825.92
2018-11-05T08:23:40.414Z,94822.86
2018-11-05T08:26:12.274Z,94819.28
2018-11-05T08:28:44.147Z,94827.81
2018-11-05T08:31:15.988Z,94803.20
2018-11-05T08:33:47.921Z,94829.02
2018-11-05T08:36:19.742Z,94822.55
2018-11-05T08:38:51.752Z,94828.07
2018-11-05T08:41:23.626Z,94823.89
2018-11-05T08:43:55.583Z,94807.59
2018-11-05T08:46:27.313Z,94805.69
2018-11-05T08:48:59.184Z,94816.67
2018-11-05T08:51:31.398Z,94811.92
2018-11-05T08:54:03.189Z,94814.91
2018-11-05T08:56:35.024Z,94806.98
2018-11-05T08:59:07.338Z,94820.73
2018-11-05T09:01:39.044Z,94823.91
2018-11-05T09:04:11.052Z,94806.94
2018-11-05T09:06:42.752Z,94803.09
2018-11-05T09:09:14.656Z,94795.70
2018-11-05T09:11:46.688Z,94800.69
2018-11-05T09:14:18.542Z,94801.31
2018-11-05T09:16:50.306Z,94811.11
2018-11-05T09:19:22.199Z,94810.42
2018-11-05T09:21:54.220Z,94799.94
2018-11-05T09:24:28.840Z,94800.27
2018-11-05T09:27:00.769Z,94802.84
2018-11-05T09:29:32.669Z,94796.56
2018-11-05T09:32:07.125Z,94794.87
2018-11-05T09:34:39.013Z,94794.61
2018-11-05T09:37:10.917Z,94791.71
2018-11-05T09:39:42.813Z,94775.23
2018-11-05T09:42:14.678Z,94774.18
2018-11-05T09:44:46.744Z,94780.89
2018-11-05T09:47:18.610Z,94765.94
2018-11-05T09:49:50.793Z,94784.40
2018-11-05T09:52:22.766Z,94769.94
2018-11-05T09:54:54.693Z,94775.48
2018-11-05T09:57:26.655Z,94762.27
2018-11-05T09:59:58.451Z,94754.28
2018-11-05T10:02:49.117Z,94760.48
2018-11-05T10:05:23.605Z,94751.17
2018-11-05T10:07:58.139Z,94751.37
2018-11-05T10:10:30.179Z,94743.03
2018-11-05T10:13:02.042Z,94749.36
2018-11-05T10:15:34.060Z,94740.24
2018-11-05T10:18:06.143Z,94743.49
2018-11-05T10:20:40.682Z,94740.25
2018-11-05T10:23:12.523Z,94741.22
2018-11-05T10:25:44.497Z,94735.14
2018-11-05T10:28:16.330Z,94729.91
2018-11-05T10:30:48.185Z,94728.33
2018-11-05T10:33:20.248Z,94735.69
2018-11-05T10:35:55.568Z,94730.07
2018-11-05T10:38:30.290Z,94736.34
2018-11-05T10:41:02.178Z,94735.42
2018-11-05T10:43:36.128Z,94721.52
2018-11-05T10:46:08.597Z,94717.28
2018-11-05T10:48:40.474Z,94711.08
2018-11-05T10:51:12.547Z,94708.53
2018-11-05T10:53:44.270Z,94706.03
2018-11-05T10:56:16.283Z,94711.33
2018-11-05T10:58:48.070Z,94703.55
2018-11-05T11:01:37.115Z,94701.11
2018-11-05T11:04:25.911Z,94706.58
2018-11-05T11:06:57.712Z,94707.88
2018-11-05T11:09:29.615Z,94699.08
2018-11-05T11:12:01.752Z,94684.64
2018-11-05T11:14:33.574Z,94688.03
2018-11-05T11:17:05.445Z,94683.64
2018-11-05T11:19:41.481Z,94675.60
2018-11-05T11:22:13.402Z,94667.38
2018-11-05T11:24:45.479Z,94665.48
2018-11-05T11:27:17.414Z,94655.53
2018-11-05T11:29:49.895Z,94653.28
2018-11-05T11:32:21.731Z,94643.25
2018-11-05T11:34:56.411Z,94644.55
2018-11-05T11:37:28.459Z,94641.31
2018-11-05T11:40:00.504Z,94632.58
2018-11-05T11:42:32.532Z,94636.00
2018-11-05T11:45:04.581Z,94634.08
2018-11-05T11:47:36.215Z,94630.70
2018-11-05T11:50:10.860Z,94629.69
2018-11-05T11:52:43.390Z,94626.47
2018-11-05T11:55:20.164Z,94625.78
2018-11-05T11:57:52.028Z,94625.95
2018-11-05T12:00:25.194Z,94627.64
2018-11-05T12:02:57.029Z,94625.06
2018-11-05T12:05:29.049Z,94629.17
2018-11-05T12:08:00.719Z,94622.42
2018-11-05T12:10:35.047Z,94617.33
2018-11-05T12:13:07.155Z,94616.66
2018-11-05T12:15:39.035Z,94613.64
2018-11-05T12:18:11.148Z,94613.98
2018-11-05T12:20:42.970Z,94610.00
2018-11-05T12:23:14.817Z,94603.20
2018-11-05T12:25:46.657Z,94600.23
2018-11-05T12:28:18.498Z,94597.45
2018-11-05T12:30:50.329Z,94594.82
2018-11-05T12:33:22.223Z,94591.38
2018-11-05T12:35:54.163Z,94579.79
2018-11-05T12:38:26.209Z,94581.06
2018-11-05T12:40:58.142Z,94581.20
2018-11-05T12:43:30.005Z,94576.11
2018-11-05T12:46:01.822Z,94569.38
2018-11-05T12:48:33.682Z,94575.61
2018-11-05T12:51:05.595Z,94574.47
2018-11-05T12:53:37.499Z,94573.30
2018-11-05T12:56:09.291Z,94572.18
2018-11-05T12:58:41.235Z,94570.67
2018-11-05T13:01:13.171Z,94568.36
2018-11-05T13:03:46.068Z,94566.53
2018-11-05T13:06:17.994Z,94558.03
2018-11-05T13:08:49.846Z,94549.14
2018-11-05T13:11:21.691Z,94554.81
2018-11-05T13:13:53.553Z,94552.59
2018-11-05T13:16:25.382Z,94558.95
2018-11-05T13:18:57.462Z,94559.17
2018-11-05T13:21:29.723Z,94549.05
2018-11-05T13:24:01.977Z,94547.73
2018-11-05T13:26:33.875Z,94543.78
2018-11-05T13:29:05.987Z,94541.22
2018-11-05T13:31:37.845Z,94535.25
2018-11-05T13:34:10.116Z,94536.86
2018-11-05T13:36:42.198Z,94536.13
2018-11-05T13:39:14.270Z,94533.89
2018-11-05T13:41:46.115Z,94541.69
2018-11-05T13:44:17.903Z,94533.81
2018-11-05T13:46:50.193Z,94528.13
2018-11-05T13:49:21.755Z,94525.20
2018-11-05T13:51:53.487Z,94517.39
2018-11-05T13:54:25.350Z,94518.09
2018-11-05T13:56:57.202Z,94508.38
2018-11-05T13:59:29.059Z,94518.66
2018-11-05T14:02:00.934Z,94527.23
2018-11-05T14:04:32.946Z,94534.80
2018-11-05T14:07:04.858Z,94546.70
2018-11-05T14:09:36.876Z,94550.70
2018-11-05T14:12:08.785Z,94552.71
2018-11-05T14:14:40.845Z,94553.28
2018-11-05T14:17:12.739Z,94553.28
2018-11-05T14:19:44.560Z,94552.58
2018-11-05T14:22:16.421Z,94559.45
2018-11-05T14:24:48.319Z,94566.95
2018-11-05T14:27:20.344Z,94570.45
2018-11-05T14:29:52.409Z,94570.95
2018-11-05T14:32:26.155Z,94568.36
2018-11-05T14:34:58.059Z,94567.28
2018-11-05T14:37:30.030Z,94562.52
2018-11-05T14:40:01.812Z,94572.30
2018-11-05T14:42:33.687Z,94574.00
2018-11-05T14:45:06.206Z,94569.59
2018-11-05T14:47:38.051Z,94570.12
2018-11-05T14:50:13.043Z,94579.84
2018-11-05T14:52:44.963Z,94572.72
2018-11-05T14:55:18.638Z,94573.87
2018-11-05T14:57:51.621Z,94567.48
2018-11-05T15:00:27.604Z,94572.06
2018-11-05T15:03:01.419Z,94575.44
2018-11-05T15:05:31.617Z,94576.34
2018-11-05T15:08:03.593Z,94573.17
2018-11-05T15:10:35.431Z,94571.69
2018-11-05T15:13:07.508Z,94571.31
2018-11-05T15:15:39.351Z,94585.41
2018-11-05T15:18:11.357Z,94581.84
2018-11-05T15:20:43.204Z,94577.80
2018-11-05T15:23:15.051Z,94572.72
2018-11-05T15:25:47.072Z,94571.72
2018-11-05T15:28:18.745Z,94573.45
2018-11-05T15:30:50.735Z,94573.23
2018-11-05T15:33:22.628Z,94584.31
2018-11-05T15:35:54.490Z,94584.14
2018-11-05T15:38:26.321Z,94583.64
2018-11-05T15:40:58.218Z,94586.84
2018-11-05T15:43:30.798Z,94584.52
2018-11-05T15:46:02.770Z,94583.81
2018-11-05T15:48:37.299Z,94584.81
2018-11-05T15:51:09.269Z,94589.42
2018-11-05T15:53:41.464Z,94588.44
2018-11-05T15:56:13.021Z,94596.72
2018-11-05T15:58:45.494Z,94600.05
2018-11-05T16:01:17.509Z,94595.66
2018-11-05T16:03:49.487Z,94597.55
2018-11-05T16:06:21.366Z,94603.23
2018-11-05T16:08:53.264Z,94604.61
2018-11-05T16:11:25.167Z,94603.38
2018-11-05T16:13:57.320Z,94611.20
2018-11-05T16:16:29.229Z,94611.24
2018-11-05T16:19:01.255Z,94609.75
2018-11-05T16:21:33.167Z,94612.45
2018-11-05T16:24:05.045Z,94614.22
2018-11-05T16:26:36.907Z,94618.20
2018-11-05T16:29:08.898Z,94625.77
2018-11-05T16:31:40.842Z,94636.02
2018-11-05T16:34:12.690Z,94631.52
2018-11-05T16:36:44.630Z,94630.45
2018-11-05T16:39:16.548Z,94628.14
2018-11-05T16:41:48.568Z,94631.92
2018-11-05T16:44:20.467Z,94627.44
2018-11-05T16:46:52.487Z,94631.99
2018-11-05T16:49:24.323Z,94635.92
2018-11-05T16:51:56.335Z,94631.89
2018-11-05T16:54:28.189Z,94634.46
2018-11-05T16:57:00.214Z,94630.81
2018-11-05T16:59:32.119Z,94632.26
2018-11-05T17:02:05.139Z,94637.56
2018-11-05T17:04:36.723Z,94639.45
2018-11-05T17:07:08.956Z,94641.72
2018-11-05T17:09:40.862Z,94652.91
2018-11-05T17:12:15.637Z,94654.82
2018-11-05T17:14:47.505Z,94651.22
2018-11-05T17:17:19.378Z,94653.08
2018-11-05T17:19:51.347Z,94654.75
2018-11-05T17:22:29.738Z,94655.19
2018-11-05T17:25:01.746Z,94661.16
2018-11-05T17:27:33.506Z,94663.88
2018-11-05T17:30:11.887Z,94661.95
2018-11-05T17:32:48.399Z,94672.44
2018-11-05T17:35:26.054Z,94672.09
2018-11-05T17:38:04.374Z,94675.39
2018-11-05T17:40:36.578Z,94691.95
2018-11-05T17:43:08.578Z,94691.34
2018-11-05T17:45:40.407Z,94686.30
2018-11-05T17:48:12.357Z,94687.80
2018-11-05T17:50:44.200Z,94683.39
2018-11-05T17:53:16.056Z,94685.39
2018-11-05T17:55:48.097Z,94692.27
2018-11-05T17:58:19.870Z,94687.75
2018-11-05T18:00:51.729Z,94687.11
2018-11-05T18:03:24.485Z,94692.64
2018-11-05T18:05:56.348Z,94687.13
2018-11-05T18:08:28.219Z,94684.52
2018-11-05T18:11:00.140Z,94690.11
2018-11-05T18:13:32.058Z,94686.03
2018-11-05T18:16:03.981Z,94688.45
2018-11-05T18:18:35.922Z,94689.13
2018-11-05T18:21:07.814Z,94698.39
2018-11-05T18:23:39.836Z,94694.64
2018-11-05T18:26:11.706Z,94697.27
2018-11-05T18:28:43.569Z,94695.63
2018-11-05T18:31:15.515Z,94700.16
2018-11-05T18:33:47.352Z,94697.88
2018-11-05T18:36:19.483Z,94697.54
2018-11-05T18:38:51.516Z,94696.58
2018-11-05T18:41:23.421Z,94693.29
2018-11-05T18:43:55.350Z,94694.84
2018-11-05T18:46:27.291Z,94691.60
2018-11-05T18:48:59.182Z,94688.52
2018-11-05T18:51:31.073Z,94695.15
2018-11-05T18:54:02.969Z,94693.49
2018-11-05T18:56:34.857Z,94705.16
2018-11-05T18:59:07.427Z,94712.63
2018-11-05T19:01:39.315Z,94708.36
2018-11-05T19:04:11.186Z,94710.78
2018-11-05T19:06:43.042Z,94720.67
2018-11-05T19:09:15.067Z,94721.39
2018-11-05T19:11:47.001Z,94721.39
2018-11-05T19:14:19.524Z,94720.87
2018-11-05T19:16:51.478Z,94718.94
2018-11-05T19:19:23.414Z,94723.80
2018-11-05T19:21:55.259Z,94727.59
2018-11-05T19:24:27.274Z,94724.61
2018-11-05T19:26:59.016Z,94729.95
2018-11-05T19:29:30.870Z,94720.60
2018-11-05T19:32:02.723Z,94726.28
2018-11-05T19:34:34.618Z,94729.20
2018-11-05T19:37:06.831Z,94723.97
2018-11-05T19:39:38.743Z,94721.37
2018-11-05T19:42:10.638Z,94727.09
2018-11-05T19:44:42.458Z,94727.11
2018-11-05T19:47:14.337Z,94726.29
2018-11-05T19:49:46.427Z,94731.45
2018-11-05T19:52:18.271Z,94728.63
2018-11-05T19:54:50.300Z,94740.67
2018-11-05T19:57:22.150Z,94738.60
2018-11-05T19:59:54.027Z,94735.38
2018-11-05T20:02:32.037Z,94739.30
2018-11-05T20:05:03.880Z,94740.74
2018-11-05T20:07:35.708Z,94736.08
2018-11-05T20:10:08.725Z,94740.25
2018-11-05T20:12:40.750Z,94743.16
2018-11-05T20:15:12.990Z,94743.13
2018-11-05T20:17:45.592Z,94746.58
2018-11-05T20:20:18.708Z,94744.85
2018-11-05T20:22:50.622Z,94740.93
2018-11-05T20:25:22.639Z,94747.31
2018-11-05T20:27:54.459Z,94748.44
2018-11-05T20:30:27.460Z,94745.87
2018-11-05T20:33:00.277Z,94746.87
2018-11-05T20:35:31.938Z,94750.05
2018-11-05T20:38:03.827Z,94750.28
2018-11-05T20:40:35.783Z,94751.51
2018-11-05T20:43:07.689Z,94758.00
2018-11-05T20:45:39.573Z,94749.17
2018-11-05T20:48:11.413Z,94759.16
2018-11-05T20:50:43.319Z,94758.88
2018-11-05T20:53:15.138Z,94756.13
2018-11-05T20:55:46.961Z,94764.86
2018-11-05T20:58:18.833Z,94760.45
2018-11-05T21:00:50.741Z,94761.12
2018-11-05T21:03:22.578Z,94766.14
2018-11-05T21:05:54.452Z,94762.83
2018-11-05T21:08:26.337Z,94767.25
2018-11-05T21:10:58.170Z,94763.26
2018-11-05T21:13:30.009Z,94767.11
2018-11-05T21:16:01.855Z,94763.73
2018-11-05T21:18:33.648Z,94760.70
2018-11-05T21:21:05.722Z,94769.12
2018-11-05T21:23:37.453Z,94770.70
2018-11-05T21:26:09.300Z,94772.14
2018-11-05T21:28:41.103Z,94774.38
2018-11-05T21:31:12.914Z,94770.91
2018-11-05T21:33:44.883Z,94765.70
2018-11-05T21:36:17.067Z,94762.28
2018-11-05T21:38:48.910Z,94762.75
2018-11-05T21:41:21.158Z,94763.43
2018-11-05T21:43:52.985Z,94767.11
2018-11-05T21:46:24.892Z,94764.66
2018-11-05T21:48:56.926Z,94766.65
2018-11-05T21:51:28.862Z,94765.27
2018-11-05T21:54:00.839Z,94767.25
2018-11-05T21:56:32.598Z,94763.58
2018-11-05T21:59:04.442Z,94765.59
2018-11-05T22:01:36.267Z,94766.61
2018-11-05T22:04:08.117Z,94780.30
2018-11-05T22:06:39.932Z,94780.37
2018-11-05T22:09:11.731Z,94772.52
2018-11-05T22:11:43.573Z,94783.53
2018-11-05T22:14:15.382Z,94775.48
2018-11-05T22:16:47.223Z,94775.20
2018-11-05T22:19:19.036Z,94787.69
2018-11-05T22:21:50.854Z,94778.66
2018-11-05T22:24:22.810Z,94781.91
2018-11-05T22:26:54.641Z,94779.31
2018-11-05T22:29:26.572Z,94778.98
2018-11-05T22:31:58.662Z,94776.02
2018-11-05T22:34:30.441Z,94771.44
2018-11-05T22:37:02.364Z,94772.37
2018-11-05T22:39:34.147Z,94776.59
2018-11-05T22:42:06.265Z,94766.70
2018-11-05T22:44:38.074Z,94768.03
2018-11-05T22:47:09.935Z,94768.23
2018-11-05T22:49:41.724Z,94779.05
2018-11-05T22:52:13.568Z,94773.55
2018-11-05T22:54:45.358Z,94777.57
2018-11-05T22:57:17.235Z,94780.16
2018-11-05T22:59:49.097Z,94787.00
2018-11-05T23:02:20.957Z,94790.47
2018-11-05T23:04:52.772Z,94780.16
2018-11-05T23:07:24.605Z,94777.87
2018-11-05T23:09:56.412Z,94783.64
2018-11-05T23:12:28.269Z,94783.33
2018-11-05T23:15:00.047Z,94781.89
2018-11-05T23:17:34.967Z,94778.09
2018-11-05T23:20:07.768Z,94782.25
2018-11-05T23:22:39.936Z,94784.20
2018-11-05T23:25:11.810Z,94782.15
2018-11-05T23:27:43.686Z,94781.25
2018-11-05T23:30:15.456Z,94779.91
2018-11-05T23:32:47.273Z,94781.88
2018-11-05T23:35:19.058Z,94782.28
2018-11-05T23:37:50.907Z,94787.84
2018-11-05T23:40:22.717Z,94788.10
2018-11-05T23:42:54.523Z,94783.30
2018-11-05T23:45:26.340Z,94784.36
2018-11-05T23:47:58.164Z,94786.25
2018-11-05T23:50:29.956Z,94789.16
2018-11-05T23:53:01.748Z,94793.51
2018-11-05T23:55:33.550Z,94787.37
2018-11-05T23:58:05.381Z,94781.91
